Main page
METAR-TAF:

METAR-TAF

Airports :

Tuticorin Airport

Thoothukudi, India

latitude: 8-43-27N, longitude: 78-01-33E, elevation: 39 m

Current weather observation

The report was made 2 hours and 16 minutes ago, at 11:30 UTC
Wind 10 kt from the South/Southeast
Temperature 34°C
Humidity 50%
Pressure 1006 hPa
Visibility: 7000 m
Few clouds at a height of 2000 ft

METAR: VOTK 201130Z 15010KT 7000 FEW020 34/22 Q1006 NOSIG

Time: 19:16 (13:46 UTC)


TAF: missing

Weather observations and forecasts of more than 4000 airports (METAR and TAF reports).

The available stations are represented by yellow and red dots on the map.

Hover mouse over dot to see the name of the station.

Then click to see weather observations and forecasts.

To change the map : click on the green buttons with a black cross to zoom in, on the green button with a dash to zoom out, or on the green arrows for adjacent maps.


METAR-TAF: